Time,TemperatureF,DewpointF,PressureIn,WindDirection,WindDirectionDegrees,WindSpeedMPH,WindSpeedGustMPH,Humidity,HourlyPrecipIn,Conditions,Clouds,dailyrainin,SoftwareType,DateUTC
2013-02-23 00:00:00,32.2,22.5,29.29,ESE,116,4.9,4.9,67,0.00,,BKN,0.00,VWS V13.01,2013-02-23 05:00:00,
2013-02-23 00:05:00,32.2,22.5,29.29,East,93,2.7,2.7,67,0.00,,BKN,0.00,VWS V13.01,2013-02-23 05:05:00,
2013-02-23 00:10:00,32.2,22.5,29.29,ESE,113,4.9,5.4,67,0.00,,BKN,0.00,VWS V13.01,2013-02-23 05:10:00,
2013-02-23 00:15:00,32.2,22.5,29.26,ESE,104,4.9,4.9,67,0.00,,BKN,0.00,VWS V13.01,2013-02-23 05:15:00,
2013-02-23 00:20:00,32.2,22.5,29.26,ENE,76,3.1,3.1,67,0.00,,BKN,0.00,VWS V13.01,2013-02-23 05:20:00,
2013-02-23 00:25:00,32.2,22.5,29.26,ESE,107,4.9,5.4,67,0.00,,BKN,0.00,VWS V13.01,2013-02-23 05:25:00,
2013-02-23 00:30:00,32.2,22.5,29.26,East,94,5.4,5.4,67,0.00,,BKN,0.00,VWS V13.01,2013-02-23 05:30:00,
2013-02-23 00:35:00,32.2,22.5,29.26,ESE,104,4.5,4.5,67,0.00,,BKN,0.00,VWS V13.01,2013-02-23 05:35:00,
2013-02-23 00:40:00,32.2,22.5,29.26,ESE,112,4.0,4.9,67,0.00,,BKN,0.00,VWS V13.01,2013-02-23 05:40:00,
2013-02-23 00:45:00,32.2,22.5,29.26,ESE,120,0.0,5.4,67,0.00,,BKN,0.00,VWS V13.01,2013-02-23 05:45:00,
2013-02-23 00:50:00,32.2,22.5,29.26,ESE,107,5.8,6.3,67,0.00,,BKN,0.00,VWS V13.01,2013-02-23 05:50:00,
2013-02-23 00:55:00,32.2,22.8,29.26,East,90,4.5,5.8,68,0.00,,BKN,0.00,VWS V13.01,2013-02-23 05:55:00,
2013-02-23 00:59:00,32.2,22.5,29.26,ESE,117,4.5,5.8,67,0.00,,BKN,0.00,VWS V13.01,2013-02-23 05:59:00,
2013-02-23 01:04:00,32.4,22.6,29.26,SE,124,4.9,6.3,67,0.00,,BKN,0.00,VWS V13.01,2013-02-23 06:04:00,
2013-02-23 01:09:00,32.4,22.6,29.26,East,93,4.0,4.0,67,0.00,,BKN,0.00,VWS V13.01,2013-02-23 06:09:00,
2013-02-23 01:14:00,32.4,22.6,29.26,ESE,118,5.4,5.4,67,0.00,,BKN,0.00,VWS V13.01,2013-02-23 06:14:00,
2013-02-23 01:20:00,32.4,22.6,29.26,ESE,115,3.1,4.9,67,0.00,,BKN,0.00,VWS V13.01,2013-02-23 06:20:00,
2013-02-23 01:25:00,32.4,22.6,29.26,ESE,110,3.1,3.1,67,0.00,,BKN,0.00,VWS V13.01,2013-02-23 06:25:00,
2013-02-23 01:30:00,32.4,22.6,29.26,ESE,104,5.4,5.4,67,0.00,,BKN,0.00,VWS V13.01,2013-02-23 06:30:00,
2013-02-23 01:35:00,32.4,22.6,29.26,ESE,115,2.7,4.5,67,0.00,,BKN,0.00,VWS V13.01,2013-02-23 06:35:00,
2013-02-23 01:40:00,32.5,22.8,29.26,ESE,115,5.8,5.8,67,0.00,,BKN,0.00,VWS V13.01,2013-02-23 06:40:00,
2013-02-23 01:44:00,32.5,22.8,29.26,ESE,102,3.6,3.6,67,0.00,,BKN,0.00,VWS V13.01,2013-02-23 06:44:00,
2013-02-23 01:49:00,32.5,22.8,29.26,ESE,114,0.0,0.0,67,0.00,,BKN,0.00,VWS V13.01,2013-02-23 06:49:00,
2013-02-23 01:54:00,32.5,22.8,29.26,East,98,3.1,4.5,67,0.00,,BKN,0.00,VWS V13.01,2013-02-23 06:54:00,
2013-02-23 01:59:00,32.5,22.8,29.26,ESE,119,4.0,4.5,67,0.00,,BKN,0.00,VWS V13.01,2013-02-23 06:59:00,
2013-02-23 02:04:00,32.5,22.8,29.26,ESE,119,0.0,2.7,67,0.00,,BKN,0.00,VWS V13.01,2013-02-23 07:04:00,
2013-02-23 02:09:00,32.5,22.8,29.26,ESE,120,0.0,0.0,67,0.00,,BKN,0.00,VWS V13.01,2013-02-23 07:09:00,
2013-02-23 02:14:00,32.5,22.8,29.26,East,97,0.0,3.1,67,0.00,,BKN,0.00,VWS V13.01,2013-02-23 07:14:00,
2013-02-23 02:19:00,32.5,22.8,29.26,East,97,0.0,0.0,67,0.00,,BKN,0.00,VWS V13.01,2013-02-23 07:19:00,
2013-02-23 02:24:00,32.5,22.8,29.26,East,97,2.7,3.6,67,0.00,,BKN,0.00,VWS V13.01,2013-02-23 07:24:00,
2013-02-23 02:29:00,32.5,22.8,29.26,East,97,0.0,0.0,67,0.00,,BKN,0.00,VWS V13.01,2013-02-23 07:29:00,
2013-02-23 02:34:00,32.5,22.8,29.23,East,97,0.0,0.0,67,0.00,,BKN,0.00,VWS V13.01,2013-02-23 07:34:00,
2013-02-23 02:39:00,32.5,22.8,29.23,East,97,0.0,0.0,67,0.00,,BKN,0.00,VWS V13.01,2013-02-23 07:39:00,
2013-02-23 02:44:00,32.5,22.8,29.23,East,97,0.0,0.0,67,0.00,,BKN,0.00,VWS V13.01,2013-02-23 07:44:00,
2013-02-23 02:49:00,32.5,22.8,29.23,East,97,0.0,0.0,67,0.00,,BKN,0.00,VWS V13.01,2013-02-23 07:49:00,
2013-02-23 02:54:00,32.5,22.8,29.23,East,97,0.0,0.0,67,0.00,,BKN,0.00,VWS V13.01,2013-02-23 07:54:00,
2013-02-23 02:59:00,32.5,22.8,29.23,East,97,0.0,0.0,67,0.00,,BKN,0.00,VWS V13.01,2013-02-23 07:59:00,
2013-02-23 03:04:00,32.5,22.8,29.23,East,97,0.0,0.0,67,0.00,,BKN,0.00,VWS V13.01,2013-02-23 08:04:00,
2013-02-23 03:09:00,32.5,22.8,29.23,East,97,0.0,0.0,67,0.00,,BKN,0.00,VWS V13.01,2013-02-23 08:09:00,
2013-02-23 03:14:00,32.5,22.8,29.23,East,97,0.0,0.0,67,0.00,,BKN,0.00,VWS V13.01,2013-02-23 08:14:00,
2013-02-23 03:19:00,32.5,22.8,29.23,East,97,0.0,0.0,67,0.00,,BKN,0.00,VWS V13.01,2013-02-23 08:19:00,
2013-02-23 03:24:00,32.5,22.8,29.23,East,97,0.0,0.0,67,0.00,,BKN,0.00,VWS V13.01,2013-02-23 08:24:00,
2013-02-23 03:29:00,32.5,22.8,29.23,East,97,0.0,0.0,67,0.00,,BKN,0.00,VWS V13.01,2013-02-23 08:29:00,
2013-02-23 03:34:00,32.5,22.8,29.21,East,97,0.0,0.0,67,0.00,,BKN,0.00,VWS V13.01,2013-02-23 08:34:00,
2013-02-23 03:39:00,32.5,22.8,29.21,East,97,0.0,0.0,67,0.00,,BKN,0.00,VWS V13.01,2013-02-23 08:39:00,
2013-02-23 03:44:00,32.5,22.8,29.21,East,97,0.0,0.0,67,0.00,,BKN,0.00,VWS V13.01,2013-02-23 08:44:00,
2013-02-23 03:49:00,32.5,22.8,29.21,East,97,0.0,0.0,67,0.00,,BKN,0.00,VWS V13.01,2013-02-23 08:49:00,
2013-02-23 03:54:00,32.5,22.8,29.21,East,97,0.0,0.0,67,0.00,,BKN,0.00,VWS V13.01,2013-02-23 08:54:00,
2013-02-23 03:59:00,32.5,22.8,29.21,East,97,0.0,0.0,67,0.00,,BKN,0.00,VWS V13.01,2013-02-23 08:59:00,
2013-02-23 04:04:00,32.5,22.8,29.21,East,97,0.0,0.0,67,0.00,,BKN,0.00,VWS V13.01,2013-02-23 09:04:00,
2013-02-23 04:09:00,32.5,22.8,29.21,East,97,0.0,0.0,67,0.00,,BKN,0.00,VWS V13.01,2013-02-23 09:09:00,
2013-02-23 04:14:00,32.5,22.8,29.21,East,97,0.0,0.0,67,0.00,,BKN,0.00,VWS V13.01,2013-02-23 09:14:00,
2013-02-23 04:19:00,32.5,22.8,29.21,East,97,0.0,0.0,67,0.00,,BKN,0.00,VWS V13.01,2013-02-23 09:19:00,
2013-02-23 04:24:00,32.5,23.2,29.21,East,97,0.0,0.0,68,0.00,,BKN,0.00,VWS V13.01,2013-02-23 09:24:00,
2013-02-23 04:29:00,32.5,23.2,29.21,East,97,0.0,0.0,68,0.00,,BKN,0.00,VWS V13.01,2013-02-23 09:29:00,
2013-02-23 04:34:00,32.5,23.2,29.21,East,97,0.0,0.0,68,0.00,,BKN,0.00,VWS V13.01,2013-02-23 09:34:00,
2013-02-23 04:39:00,32.7,23.3,29.21,East,97,0.0,0.0,68,0.00,,BKN,0.00,VWS V13.01,2013-02-23 09:39:00,
2013-02-23 04:44:00,32.7,23.3,29.21,East,97,0.0,0.0,68,0.00,,BKN,0.00,VWS V13.01,2013-02-23 09:44:00,
2013-02-23 04:49:00,32.7,23.3,29.21,East,97,0.0,0.0,68,0.00,,BKN,0.00,VWS V13.01,2013-02-23 09:49:00,
2013-02-23 04:54:00,32.7,23.3,29.21,East,97,0.0,0.0,68,0.00,,BKN,0.00,VWS V13.01,2013-02-23 09:54:00,
2013-02-23 04:59:00,32.7,23.3,29.21,East,97,0.0,0.0,68,0.00,,BKN,0.00,VWS V13.01,2013-02-23 09:59:00,
2013-02-23 05:04:00,32.7,23.3,29.21,East,97,0.0,0.0,68,0.00,,BKN,0.00,VWS V13.01,2013-02-23 10:04:00,
2013-02-23 05:09:00,32.7,23.3,29.21,East,97,0.0,0.0,68,0.00,,BKN,0.00,VWS V13.01,2013-02-23 10:09:00,
2013-02-23 05:14:00,32.7,23.3,29.21,East,97,0.0,0.0,68,0.00,,BKN,0.00,VWS V13.01,2013-02-23 10:14:00,
2013-02-23 05:19:00,32.7,23.3,29.21,East,97,0.0,0.0,68,0.00,,BKN,0.00,VWS V13.01,2013-02-23 10:19:00,
2013-02-23 05:24:00,32.7,23.3,29.21,East,97,0.0,0.0,68,0.00,,BKN,0.00,VWS V13.01,2013-02-23 10:24:00,
2013-02-23 05:29:00,32.7,23.3,29.21,East,97,0.0,0.0,68,0.00,,BKN,0.00,VWS V13.01,2013-02-23 10:29:00,
2013-02-23 05:34:00,32.7,23.3,29.21,East,97,0.0,0.0,68,0.00,,BKN,0.00,VWS V13.01,2013-02-23 10:34:00,
2013-02-23 05:39:00,32.7,23.3,29.21,East,97,0.0,0.0,68,0.00,,BKN,0.00,VWS V13.01,2013-02-23 10:39:00,
2013-02-23 05:44:00,32.7,23.3,29.21,East,97,0.0,0.0,68,0.00,,BKN,0.00,VWS V13.01,2013-02-23 10:44:00,
2013-02-23 05:49:00,32.7,23.3,29.21,East,97,0.0,0.0,68,0.00,,BKN,0.00,VWS V13.01,2013-02-23 10:49:00,
2013-02-23 05:54:00,32.7,23.3,29.21,East,97,0.0,0.0,68,0.00,,BKN,0.00,VWS V13.01,2013-02-23 10:54:00,
2013-02-23 05:59:00,32.7,23.3,29.21,East,97,0.0,0.0,68,0.00,,BKN,0.00,VWS V13.01,2013-02-23 10:59:00,
2013-02-23 06:04:00,32.7,23.3,29.18,East,97,0.0,0.0,68,0.00,,BKN,0.00,VWS V13.01,2013-02-23 11:04:00,
2013-02-23 06:09:00,32.7,23.3,29.18,East,97,0.0,0.0,68,0.00,,BKN,0.00,VWS V13.01,2013-02-23 11:09:00,
2013-02-23 06:14:00,32.7,23.3,29.18,East,97,0.0,0.0,68,0.00,,BKN,0.00,VWS V13.01,2013-02-23 11:14:00,
2013-02-23 06:19:00,32.7,23.3,29.21,East,97,0.0,0.0,68,0.00,,BKN,0.00,VWS V13.01,2013-02-23 11:19:00,
2013-02-23 06:24:00,32.7,23.3,29.21,East,97,0.0,0.0,68,0.00,,BKN,0.00,VWS V13.01,2013-02-23 11:24:00,
2013-02-23 06:29:00,32.7,23.3,29.21,East,97,0.0,0.0,68,0.00,,BKN,0.00,VWS V13.01,2013-02-23 11:29:00,
2013-02-23 06:34:00,32.7,23.3,29.18,East,97,0.0,0.0,68,0.00,,BKN,0.00,VWS V13.01,2013-02-23 11:34:00,
2013-02-23 06:39:00,32.9,23.5,29.18,East,97,0.0,0.0,68,0.00,,BKN,0.00,VWS V13.01,2013-02-23 11:39:00,
2013-02-23 06:44:00,32.9,23.5,29.18,East,97,0.0,0.0,68,0.00,,BKN,0.00,VWS V13.01,2013-02-23 11:44:00,
2013-02-23 06:49:00,32.9,23.5,29.21,East,97,0.0,0.0,68,0.00,,BKN,0.00,VWS V13.01,2013-02-23 11:49:00,
2013-02-23 06:54:00,32.9,23.5,29.21,East,97,0.0,0.0,68,0.00,,BKN,0.00,VWS V13.01,2013-02-23 11:54:00,
2013-02-23 06:59:00,32.9,23.5,29.21,East,97,0.0,0.0,68,0.00,,BKN,0.00,VWS V13.01,2013-02-23 11:59:00,
2013-02-23 07:04:00,32.9,23.5,29.21,East,97,0.0,0.0,68,0.00,,BKN,0.00,VWS V13.01,2013-02-23 12:04:00,
2013-02-23 07:09:00,32.9,23.5,29.21,East,97,0.0,0.0,68,0.00,,BKN,0.00,VWS V13.01,2013-02-23 12:09:00,
2013-02-23 07:14:00,32.9,23.5,29.21,East,97,0.0,0.0,68,0.00,,BKN,0.00,VWS V13.01,2013-02-23 12:14:00,
2013-02-23 07:19:00,32.9,23.5,29.18,East,97,0.0,0.0,68,0.00,,BKN,0.00,VWS V13.01,2013-02-23 12:19:00,
2013-02-23 07:24:00,32.9,23.5,29.18,East,97,0.0,0.0,68,0.00,,BKN,0.00,VWS V13.01,2013-02-23 12:24:00,
2013-02-23 07:29:00,32.9,23.5,29.18,East,97,0.0,0.0,68,0.00,,BKN,0.00,VWS V13.01,2013-02-23 12:29:00,
2013-02-23 07:34:00,32.9,23.5,29.18,East,97,0.0,0.0,68,0.00,,BKN,0.00,VWS V13.01,2013-02-23 12:34:00,
2013-02-23 07:39:00,32.9,23.5,29.18,East,97,0.0,0.0,68,0.00,,BKN,0.00,VWS V13.01,2013-02-23 12:39:00,
2013-02-23 07:44:00,33.1,23.7,29.18,East,97,0.0,0.0,68,0.00,,BKN,0.00,VWS V13.01,2013-02-23 12:44:00,
2013-02-23 07:49:00,33.1,23.7,29.18,East,97,0.0,0.0,68,0.00,,BKN,0.00,VWS V13.01,2013-02-23 12:49:00,
2013-02-23 07:54:00,33.1,23.7,29.18,East,97,0.0,0.0,68,0.00,,BKN,0.00,VWS V13.01,2013-02-23 12:54:00,
2013-02-23 07:59:00,33.1,23.7,29.18,East,97,0.0,0.0,68,0.00,,BKN,0.00,VWS V13.01,2013-02-23 12:59:00,
2013-02-23 08:04:00,33.3,23.9,29.18,East,97,0.0,0.0,68,0.00,,BKN,0.00,VWS V13.01,2013-02-23 13:04:00,
2013-02-23 08:09:00,33.3,24.2,29.18,NNE,31,0.0,3.1,69,0.00,,BKN,0.00,VWS V13.01,2013-02-23 13:09:00,
2013-02-23 08:14:00,33.3,24.2,29.18,NE,35,3.6,3.6,69,0.00,,BKN,0.00,VWS V13.01,2013-02-23 13:14:00,
2013-02-23 08:19:00,33.4,24.4,29.18,NE,35,2.7,3.1,69,0.00,,BKN,0.00,VWS V13.01,2013-02-23 13:19:00,
2013-02-23 08:23:00,33.4,24.4,29.18,NE,35,0.0,0.0,69,0.00,,BKN,0.00,VWS V13.01,2013-02-23 13:23:00,
2013-02-23 08:28:00,33.6,24.5,29.18,NE,35,0.0,0.0,69,0.00,,BKN,0.00,VWS V13.01,2013-02-23 13:28:00,
2013-02-23 08:33:00,33.6,24.5,29.18,NE,35,0.0,0.0,69,0.00,,BKN,0.00,VWS V13.01,2013-02-23 13:33:00,
2013-02-23 08:38:00,33.8,24.7,29.18,NE,35,0.0,0.0,69,0.00,,BKN,0.00,VWS V13.01,2013-02-23 13:38:00,
2013-02-23 08:43:00,33.8,24.7,29.18,NE,35,0.0,0.0,69,0.00,,BKN,0.00,VWS V13.01,2013-02-23 13:43:00,
2013-02-23 08:48:00,34.0,24.9,29.15,NE,34,0.0,2.7,69,0.00,,BKN,0.00,VWS V13.01,2013-02-23 13:48:00,
2013-02-23 08:53:00,34.0,24.9,29.15,NE,34,0.0,2.7,69,0.00,,BKN,0.00,VWS V13.01,2013-02-23 13:53:00,
2013-02-23 08:58:00,34.2,25.1,29.15,North,5,0.0,0.0,69,0.00,,BKN,0.00,VWS V13.01,2013-02-23 13:58:00,
2013-02-23 09:03:00,34.2,25.1,29.15,North,5,3.1,3.1,69,0.00,,BKN,0.00,VWS V13.01,2013-02-23 14:03:00,
2013-02-23 09:08:00,34.3,25.2,29.15,NNE,31,3.1,3.6,69,0.00,,BKN,0.00,VWS V13.01,2013-02-23 14:08:00,
2013-02-23 09:13:00,34.5,25.4,29.15,NNE,31,0.0,0.0,69,0.00,,BKN,0.00,VWS V13.01,2013-02-23 14:13:00,
2013-02-23 09:18:00,34.5,25.4,29.15,NNE,31,0.0,0.0,69,0.00,,BKN,0.00,VWS V13.01,2013-02-23 14:18:00,
2013-02-23 09:23:00,34.9,25.8,29.15,NNE,31,0.0,0.0,69,0.00,,BKN,0.00,VWS V13.01,2013-02-23 14:23:00,
2013-02-23 09:28:00,35.1,25.9,29.15,NNE,31,0.0,0.0,69,0.00,,BKN,0.00,VWS V13.01,2013-02-23 14:28:00,
2013-02-23 09:33:00,35.1,25.9,29.15,NNE,31,0.0,3.1,69,0.00,,BKN,0.00,VWS V13.01,2013-02-23 14:33:00,
2013-02-23 09:38:00,35.4,26.3,29.15,NNE,31,3.6,3.6,69,0.00,,BKN,0.00,VWS V13.01,2013-02-23 14:38:00,
2013-02-23 09:43:00,35.4,26.3,29.15,North,1,2.7,3.1,69,0.00,,BKN,0.00,VWS V13.01,2013-02-23 14:43:00,
2013-02-23 09:48:00,35.6,26.5,29.15,North,1,0.0,3.1,69,0.00,,BKN,0.00,VWS V13.01,2013-02-23 14:48:00,
2013-02-23 09:53:00,35.6,26.1,29.15,North,1,3.1,3.6,68,0.00,,BKN,0.00,VWS V13.01,2013-02-23 14:53:00,
2013-02-23 09:58:00,35.6,25.7,29.15,North,1,3.1,3.6,67,0.00,,BKN,0.00,VWS V13.01,2013-02-23 14:58:00,
2013-02-23 10:03:00,35.6,25.7,29.15,North,1,3.6,3.6,67,0.00,,BKN,0.00,VWS V13.01,2013-02-23 15:03:00,
2013-02-23 10:08:00,35.8,25.9,29.15,North,1,0.0,2.7,67,0.00,,BKN,0.00,VWS V13.01,2013-02-23 15:08:00,
2013-02-23 10:13:00,36.1,26.3,29.15,North,1,0.0,0.0,67,0.00,,BKN,0.00,VWS V13.01,2013-02-23 15:13:00,
2013-02-23 10:18:00,36.3,26.4,29.15,North,3,0.0,0.0,67,0.00,,BKN,0.00,VWS V13.01,2013-02-23 15:18:00,
2013-02-23 10:23:00,36.7,26.4,29.15,NE,36,3.6,4.5,66,0.00,,BKN,0.00,VWS V13.01,2013-02-23 15:23:00,
2013-02-23 10:28:00,36.7,26.4,29.15,NE,40,0.0,2.7,66,0.00,,BKN,0.00,VWS V13.01,2013-02-23 15:28:00,
2013-02-23 10:33:00,36.9,26.6,29.15,NE,40,0.0,0.0,66,0.00,,BKN,0.00,VWS V13.01,2013-02-23 15:33:00,
2013-02-23 10:38:00,37.2,26.9,29.15,NE,40,0.0,0.0,66,0.00,,BKN,0.00,VWS V13.01,2013-02-23 15:38:00,
2013-02-23 10:43:00,37.8,27.4,29.15,NE,40,0.0,0.0,66,0.00,,BKN,0.00,VWS V13.01,2013-02-23 15:43:00,
2013-02-23 10:48:00,37.8,27.4,29.12,NNE,13,3.6,3.6,66,0.00,,BKN,0.00,VWS V13.01,2013-02-23 15:48:00,
2013-02-23 10:53:00,37.9,27.2,29.12,East,94,3.1,3.6,65,0.00,,BKN,0.00,VWS V13.01,2013-02-23 15:53:00,
2013-02-23 10:58:00,37.9,26.1,29.12,ESE,121,0.0,0.0,62,0.00,,BKN,0.00,VWS V13.01,2013-02-23 15:58:00,
2013-02-23 11:03:00,38.1,26.3,29.12,ESE,121,0.0,0.0,62,0.00,,BKN,0.00,VWS V13.01,2013-02-23 16:03:00,
2013-02-23 11:08:00,38.3,26.4,29.12,ESE,120,3.1,3.1,62,0.00,,BKN,0.00,VWS V13.01,2013-02-23 16:08:00,
2013-02-23 11:13:00,38.5,26.2,29.12,ESE,103,3.6,3.6,61,0.00,,BKN,0.00,VWS V13.01,2013-02-23 16:13:00,
2013-02-23 11:18:00,38.7,26.0,29.12,ESE,103,0.0,0.0,60,0.00,,BKN,0.00,VWS V13.01,2013-02-23 16:18:00,
2013-02-23 11:23:00,38.8,26.2,29.12,ESE,102,3.1,3.6,60,0.00,,BKN,0.00,VWS V13.01,2013-02-23 16:23:00,
2013-02-23 11:28:00,39.2,26.5,29.12,ENE,78,4.0,4.5,60,0.00,,BKN,0.00,VWS V13.01,2013-02-23 16:28:00,
2013-02-23 11:33:00,39.0,25.9,29.12,ENE,61,0.0,0.0,59,0.00,,BKN,0.00,VWS V13.01,2013-02-23 16:33:00,
2013-02-23 11:38:00,39.4,26.3,29.12,North,9,3.6,4.5,59,0.00,,BKN,0.00,VWS V13.01,2013-02-23 16:38:00,
2013-02-23 11:45:00,39.7,26.6,29.12,ENE,59,0.0,0.0,59,0.00,,BKN,0.00,VWS V13.01,2013-02-23 16:45:00,
2013-02-23 11:50:00,40.1,26.9,29.12,NNW,341,2.7,4.0,59,0.00,,BKN,0.00,VWS V13.01,2013-02-23 16:50:00,
2013-02-23 11:55:00,40.6,27.5,29.12,West,267,4.0,4.9,59,0.00,,BKN,0.00,VWS V13.01,2013-02-23 16:55:00,
2013-02-23 12:00:00,41.0,26.5,29.12,West,267,3.6,4.5,56,0.00,,BKN,0.00,VWS V13.01,2013-02-23 17:00:00,
2013-02-23 12:05:00,41.2,26.2,29.12,West,267,0.0,0.0,55,0.00,,BKN,0.00,VWS V13.01,2013-02-23 17:05:00,
2013-02-23 12:10:00,41.7,26.8,29.12,West,267,0.0,3.1,55,0.00,,BKN,0.00,VWS V13.01,2013-02-23 17:10:00,
2013-02-23 12:15:00,41.9,26.0,29.09,NE,49,4.9,5.4,53,0.00,,BKN,0.00,VWS V13.01,2013-02-23 17:15:00,
2013-02-23 12:20:00,41.5,25.7,29.09,NE,47,3.6,4.0,53,0.00,,BKN,0.00,VWS V13.01,2013-02-23 17:20:00,
2013-02-23 12:25:00,41.5,25.7,29.09,East,99,3.1,3.6,53,0.00,,BKN,0.00,VWS V13.01,2013-02-23 17:25:00,
2013-02-23 12:30:00,41.7,26.3,29.09,East,99,0.0,2.7,54,0.00,,BKN,0.00,VWS V13.01,2013-02-23 17:30:00,
2013-02-23 12:35:00,42.3,26.8,29.09,East,99,3.6,4.5,54,0.00,,BKN,0.00,VWS V13.01,2013-02-23 17:35:00,
2013-02-23 12:40:00,42.4,27.0,29.09,NNE,12,0.0,3.1,54,0.00,,BKN,0.00,VWS V13.01,2013-02-23 17:40:00,
2013-02-23 12:45:00,42.8,27.3,29.09,WNW,292,0.0,3.6,54,0.00,,BKN,0.00,VWS V13.01,2013-02-23 17:45:00,
2013-02-23 12:50:00,43.0,27.5,29.09,North,2,3.6,4.5,54,0.00,,BKN,0.00,VWS V13.01,2013-02-23 17:50:00,
2013-02-23 12:55:00,43.3,27.4,29.09,East,97,3.1,3.1,53,0.00,,BKN,0.00,VWS V13.01,2013-02-23 17:55:00,
2013-02-23 13:00:00,43.7,27.7,29.09,East,97,3.1,3.1,53,0.00,,BKN,0.00,VWS V13.01,2013-02-23 18:00:00,
2013-02-23 13:05:00,44.4,27.9,29.09,East,97,3.1,3.1,52,0.00,,BKN,0.00,VWS V13.01,2013-02-23 18:05:00,
2013-02-23 13:10:00,44.8,28.2,29.09,East,97,3.1,3.1,52,0.00,,BKN,0.00,VWS V13.01,2013-02-23 18:10:00,
2013-02-23 13:15:00,45.3,28.8,29.06,East,97,3.1,3.1,52,0.00,,BKN,0.00,VWS V13.01,2013-02-23 18:15:00,
2013-02-23 13:20:00,45.1,28.1,29.06,East,97,3.1,3.1,51,0.00,,BKN,0.00,VWS V13.01,2013-02-23 18:20:00,
2013-02-23 13:25:00,45.3,28.8,29.06,East,97,3.1,3.1,52,0.00,,BKN,0.00,VWS V13.01,2013-02-23 18:25:00,
2013-02-23 13:30:00,45.9,29.2,29.06,East,97,3.1,3.1,52,0.00,,BKN,0.00,VWS V13.01,2013-02-23 18:30:00,
2013-02-23 13:35:00,46.4,28.3,29.06,East,97,3.1,3.1,49,0.00,,BKN,0.00,VWS V13.01,2013-02-23 18:35:00,
2013-02-23 13:40:00,46.2,28.1,29.06,East,97,3.1,3.1,49,0.00,,BKN,0.00,VWS V13.01,2013-02-23 18:40:00,
2013-02-23 13:45:00,46.2,28.1,29.06,East,97,3.1,3.1,49,0.00,,BKN,0.00,VWS V13.01,2013-02-23 18:45:00,
2013-02-23 13:50:00,46.2,28.1,29.06,East,97,3.1,3.1,49,0.00,,BKN,0.00,VWS V13.01,2013-02-23 18:50:00,
2013-02-23 13:55:00,46.2,27.6,29.06,East,97,3.1,3.1,48,0.00,,BKN,0.00,VWS V13.01,2013-02-23 18:55:00,
2013-02-23 14:00:00,46.2,28.1,29.03,East,97,3.1,3.1,49,0.00,,BKN,0.00,VWS V13.01,2013-02-23 19:00:00,
2013-02-23 14:05:00,46.2,27.6,29.03,East,97,3.1,3.1,48,0.00,,BKN,0.00,VWS V13.01,2013-02-23 19:05:00,
2013-02-23 14:10:00,46.9,28.3,29.03,East,97,3.1,3.1,48,0.00,,BKN,0.00,VWS V13.01,2013-02-23 19:10:00,
2013-02-23 14:15:00,46.9,28.8,29.03,East,97,3.1,3.1,49,0.00,,BKN,0.00,VWS V13.01,2013-02-23 19:15:00,
2013-02-23 14:20:00,46.9,28.8,29.03,East,97,3.1,3.1,49,0.00,,BKN,0.00,VWS V13.01,2013-02-23 19:20:00,
2013-02-23 14:25:00,46.9,28.8,29.03,East,97,3.1,3.1,49,0.00,,BKN,0.00,VWS V13.01,2013-02-23 19:25:00,
2013-02-23 14:30:00,46.9,28.8,29.03,East,97,3.1,3.1,49,0.00,,BKN,0.00,VWS V13.01,2013-02-23 19:30:00,
2013-02-23 14:35:00,47.1,29.5,29.03,East,97,3.1,3.1,50,0.00,,BKN,0.00,VWS V13.01,2013-02-23 19:35:00,
2013-02-23 14:40:00,47.1,29.5,29.03,East,97,3.1,3.1,50,0.00,,BKN,0.00,VWS V13.01,2013-02-23 19:40:00,
2013-02-23 14:45:00,47.1,29.9,29.03,East,97,3.1,3.1,51,0.00,,BKN,0.00,VWS V13.01,2013-02-23 19:45:00,
2013-02-23 14:50:00,48.4,30.6,29.03,East,97,3.1,3.1,50,0.00,,BKN,0.00,VWS V13.01,2013-02-23 19:50:00,
2013-02-23 14:55:00,48.6,30.8,29.03,East,97,3.1,3.1,50,0.00,,BKN,0.00,VWS V13.01,2013-02-23 19:55:00,
2013-02-23 15:00:00,48.6,30.3,29.00,East,97,3.1,3.1,49,0.00,,BKN,0.00,VWS V13.01,2013-02-23 20:00:00,
2013-02-23 15:05:00,48.6,30.3,29.00,East,97,3.1,3.1,49,0.00,,BKN,0.00,VWS V13.01,2013-02-23 20:05:00,
2013-02-23 15:10:00,48.6,30.3,29.00,East,97,3.1,3.1,49,0.00,,BKN,0.00,VWS V13.01,2013-02-23 20:10:00,
2013-02-23 15:15:00,48.6,30.8,29.00,East,97,3.1,3.1,50,0.00,,BKN,0.00,VWS V13.01,2013-02-23 20:15:00,
2013-02-23 15:20:00,48.6,31.8,29.00,East,97,3.1,3.1,52,0.00,,BKN,0.00,VWS V13.01,2013-02-23 20:20:00,
2013-02-23 15:25:00,48.6,31.3,29.00,East,97,3.1,3.1,51,0.00,,BKN,0.00,VWS V13.01,2013-02-23 20:25:00,
2013-02-23 15:30:00,48.6,30.8,29.00,East,97,3.1,3.1,50,0.00,,BKN,0.00,VWS V13.01,2013-02-23 20:30:00,
2013-02-23 15:35:00,48.6,30.8,29.00,East,97,3.1,3.1,50,0.00,,BKN,0.00,VWS V13.01,2013-02-23 20:35:00,
2013-02-23 15:40:00,48.6,31.3,29.00,East,97,3.1,3.1,51,0.00,,BKN,0.00,VWS V13.01,2013-02-23 20:40:00,
2013-02-23 15:45:00,48.6,31.3,29.00,East,97,3.1,3.1,51,0.00,,BKN,0.00,VWS V13.01,2013-02-23 20:45:00,
2013-02-23 15:50:00,48.6,31.8,29.00,East,97,3.1,3.1,52,0.00,,BKN,0.00,VWS V13.01,2013-02-23 20:50:00,
2013-02-23 15:55:00,48.6,31.8,29.00,East,97,3.1,3.1,52,0.00,,BKN,0.00,VWS V13.01,2013-02-23 20:55:00,
2013-02-23 16:00:00,48.6,31.8,29.00,East,97,3.1,3.1,52,0.00,,BKN,0.00,VWS V13.01,2013-02-23 21:00:00,
2013-02-23 16:05:00,48.6,32.2,29.00,East,97,3.1,3.1,53,0.00,,BKN,0.00,VWS V13.01,2013-02-23 21:05:00,
2013-02-23 16:10:00,48.6,32.2,29.00,East,97,3.1,3.1,53,0.00,,BKN,0.00,VWS V13.01,2013-02-23 21:10:00,
2013-02-23 16:15:00,48.4,32.0,29.00,East,97,3.1,3.1,53,0.00,,BKN,0.00,VWS V13.01,2013-02-23 21:15:00,
2013-02-23 16:20:00,48.4,32.0,29.00,East,97,3.1,3.1,53,0.00,,BKN,0.00,VWS V13.01,2013-02-23 21:20:00,
2013-02-23 16:25:00,48.4,32.0,29.00,East,97,3.1,3.1,53,0.00,,BKN,0.00,VWS V13.01,2013-02-23 21:25:00,
2013-02-23 16:30:00,48.4,32.5,29.00,East,97,3.1,3.1,54,0.00,,BKN,0.00,VWS V13.01,2013-02-23 21:30:00,
2013-02-23 16:35:00,48.4,32.5,29.00,East,97,3.1,3.1,54,0.00,,BKN,0.00,VWS V13.01,2013-02-23 21:35:00,
2013-02-23 16:40:00,48.4,32.5,29.00,East,97,3.1,3.1,54,0.00,,BKN,0.00,VWS V13.01,2013-02-23 21:40:00,
2013-02-23 16:45:00,48.4,32.5,29.00,East,97,3.1,3.1,54,0.00,,BKN,0.00,VWS V13.01,2013-02-23 21:45:00,
2013-02-23 16:50:00,48.4,32.5,29.00,East,97,3.1,3.1,54,0.00,,BKN,0.00,VWS V13.01,2013-02-23 21:50:00,
2013-02-23 16:55:00,48.4,32.5,29.00,East,97,3.1,3.1,54,0.00,,BKN,0.00,VWS V13.01,2013-02-23 21:55:00,
2013-02-23 17:00:00,48.4,33.0,29.00,East,97,3.1,3.1,55,0.00,,BKN,0.00,VWS V13.01,2013-02-23 22:00:00,
2013-02-23 17:05:00,48.4,33.0,29.00,East,97,3.1,3.1,55,0.00,,BKN,0.00,VWS V13.01,2013-02-23 22:05:00,
2013-02-23 17:10:00,48.2,32.8,29.00,East,97,3.1,3.1,55,0.00,,BKN,0.00,VWS V13.01,2013-02-23 22:10:00,
2013-02-23 17:15:00,48.2,32.8,29.00,East,97,3.1,3.1,55,0.00,,BKN,0.00,VWS V13.01,2013-02-23 22:15:00,
2013-02-23 17:20:00,48.2,32.8,29.00,East,97,3.1,3.1,55,0.00,,BKN,0.00,VWS V13.01,2013-02-23 22:20:00,
2013-02-23 17:25:00,48.0,32.6,29.00,East,97,3.1,3.1,55,0.00,,BKN,0.00,VWS V13.01,2013-02-23 22:25:00,
2013-02-23 17:30:00,47.8,32.5,29.00,East,97,3.1,3.1,55,0.00,,BKN,0.00,VWS V13.01,2013-02-23 22:30:00,
2013-02-23 17:35:00,47.8,32.5,29.00,East,97,3.1,3.1,55,0.00,,BKN,0.00,VWS V13.01,2013-02-23 22:35:00,
2013-02-23 17:40:00,47.7,32.3,29.00,East,97,3.1,3.1,55,0.00,,BKN,0.00,VWS V13.01,2013-02-23 22:40:00,
2013-02-23 17:45:00,47.5,32.1,29.00,East,97,3.1,3.1,55,0.00,,BKN,0.00,VWS V13.01,2013-02-23 22:45:00,
2013-02-23 17:50:00,47.3,32.0,29.00,East,97,3.1,3.1,55,0.00,,BKN,0.00,VWS V13.01,2013-02-23 22:50:00,
2013-02-23 17:55:00,47.1,31.8,29.00,East,97,3.1,3.1,55,0.00,,BKN,0.00,VWS V13.01,2013-02-23 22:55:00,
2013-02-23 18:00:00,46.8,31.5,29.00,East,97,3.1,3.1,55,0.00,,BKN,0.00,VWS V13.01,2013-02-23 23:00:00,
2013-02-23 18:05:00,46.4,31.1,28.97,East,97,3.1,3.1,55,0.00,,BKN,0.00,VWS V13.01,2013-02-23 23:05:00,
2013-02-23 18:10:00,46.2,31.0,28.97,East,97,3.1,3.1,55,0.00,,BKN,0.00,VWS V13.01,2013-02-23 23:10:00,
2013-02-23 18:14:00,45.9,30.6,28.97,East,97,3.1,3.1,55,0.00,,BKN,0.00,VWS V13.01,2013-02-23 23:14:00,
2013-02-23 18:19:00,45.5,31.2,29.00,East,97,3.1,3.1,57,0.00,,BKN,0.00,VWS V13.01,2013-02-23 23:19:00,
2013-02-23 18:24:00,45.0,30.7,29.00,East,97,3.1,3.1,57,0.00,,BKN,0.00,VWS V13.01,2013-02-23 23:24:00,
2013-02-23 18:29:00,44.6,30.3,29.00,East,97,3.1,3.1,57,0.00,,BKN,0.00,VWS V13.01,2013-02-23 23:29:00,
2013-02-23 18:34:00,44.2,30.0,29.00,East,97,3.1,3.1,57,0.00,,BKN,0.00,VWS V13.01,2013-02-23 23:34:00,
2013-02-23 18:39:00,43.9,29.6,29.00,East,97,3.1,3.1,57,0.00,,BKN,0.00,VWS V13.01,2013-02-23 23:39:00,
2013-02-23 18:44:00,43.5,29.3,29.00,East,97,3.1,3.1,57,0.00,,BKN,0.00,VWS V13.01,2013-02-23 23:44:00,
2013-02-23 18:49:00,43.3,29.1,28.97,East,97,3.1,3.1,57,0.00,,BKN,0.00,VWS V13.01,2013-02-23 23:49:00,
2013-02-23 18:54:00,43.0,28.8,28.97,East,97,3.1,3.1,57,0.00,,BKN,0.00,VWS V13.01,2013-02-23 23:54:00,
2013-02-23 18:59:00,43.0,28.8,28.97,East,97,3.1,3.1,57,0.00,,BKN,0.00,VWS V13.01,2013-02-23 23:59:00,
2013-02-23 19:04:00,42.8,32.2,29.00,NE,52,3.1,3.6,66,0.00,,BKN,0.00,VWS V13.01,2013-02-24 00:04:00,
2013-02-23 19:09:00,42.6,32.4,29.00,NNE,22,4.5,4.5,67,0.00,,BKN,0.00,VWS V13.01,2013-02-24 00:09:00,
2013-02-23 19:14:00,42.4,33.0,29.00,NNE,30,4.9,4.9,69,0.00,,BKN,0.00,VWS V13.01,2013-02-24 00:14:00,
2013-02-23 19:19:00,42.3,33.5,29.00,NE,43,4.5,5.4,71,0.00,,BKN,0.00,VWS V13.01,2013-02-24 00:19:00,
2013-02-23 19:24:00,42.3,33.2,29.00,NE,44,4.0,4.0,70,0.00,,BKN,0.00,VWS V13.01,2013-02-24 00:24:00,
2013-02-23 19:29:00,42.3,33.5,29.00,NE,44,3.1,4.0,71,0.00,,BKN,0.00,VWS V13.01,2013-02-24 00:29:00,
2013-02-23 19:34:00,42.1,33.4,29.00,NE,43,2.7,3.6,71,0.00,,BKN,0.00,VWS V13.01,2013-02-24 00:34:00,
2013-02-23 19:39:00,41.7,33.0,29.00,NE,37,3.6,5.4,71,0.00,,BKN,0.00,VWS V13.01,2013-02-24 00:39:00,
2013-02-23 19:44:00,41.7,33.0,29.00,ENE,66,4.9,5.4,71,0.00,,BKN,0.00,VWS V13.01,2013-02-24 00:44:00,
2013-02-23 19:49:00,41.4,32.7,28.97,NE,52,4.5,4.9,71,0.00,,BKN,0.00,VWS V13.01,2013-02-24 00:49:00,
2013-02-23 19:54:00,41.2,32.5,28.97,NE,54,3.6,4.9,71,0.00,,BKN,0.00,VWS V13.01,2013-02-24 00:54:00,
2013-02-23 19:59:00,41.0,32.7,28.97,NE,54,4.0,4.0,72,0.00,,BKN,0.00,VWS V13.01,2013-02-24 00:59:00,
2013-02-23 20:04:00,41.0,33.0,28.97,NE,52,4.0,4.0,73,0.00,,BKN,0.00,VWS V13.01,2013-02-24 01:04:00,
2013-02-23 20:09:00,40.8,32.8,28.97,NE,51,2.7,4.0,73,0.00,,BKN,0.00,VWS V13.01,2013-02-24 01:09:00,
2013-02-23 20:14:00,40.6,32.7,28.97,NE,51,2.7,2.7,73,0.00,,BKN,0.00,VWS V13.01,2013-02-24 01:14:00,
2013-02-23 20:19:00,40.6,32.7,28.97,NE,51,0.0,0.0,73,0.00,,BKN,0.00,VWS V13.01,2013-02-24 01:19:00,
2013-02-23 20:24:00,40.5,32.2,28.97,NE,51,0.0,0.0,72,0.00,,BKN,0.00,VWS V13.01,2013-02-24 01:24:00,
2013-02-23 20:29:00,40.5,32.2,28.97,North,356,0.0,0.0,72,0.00,,BKN,0.00,VWS V13.01,2013-02-24 01:29:00,
2013-02-23 20:34:00,40.3,32.0,28.97,North,356,0.0,0.0,72,0.00,,BKN,0.00,VWS V13.01,2013-02-24 01:34:00,
2013-02-23 20:39:00,40.3,32.0,28.97,North,356,2.7,3.1,72,0.00,,BKN,0.00,VWS V13.01,2013-02-24 01:39:00,
2013-02-23 20:44:00,40.1,31.8,28.97,North,356,0.0,0.0,72,0.00,,BKN,0.00,VWS V13.01,2013-02-24 01:44:00,
2013-02-23 20:49:00,39.9,32.0,28.97,North,356,0.0,0.0,73,0.00,,BKN,0.00,VWS V13.01,2013-02-24 01:49:00,
2013-02-23 20:54:00,39.9,32.0,28.97,North,356,0.0,0.0,73,0.00,,BKN,0.00,VWS V13.01,2013-02-24 01:54:00,
2013-02-23 20:59:00,39.9,32.0,28.97,North,356,0.0,0.0,73,0.00,,BKN,0.00,VWS V13.01,2013-02-24 01:59:00,
2013-02-23 21:04:00,39.7,31.8,28.97,North,356,0.0,0.0,73,0.00,,BKN,0.00,VWS V13.01,2013-02-24 02:04:00,
2013-02-23 21:09:00,39.7,31.8,28.97,North,356,0.0,0.0,73,0.00,,BKN,0.00,VWS V13.01,2013-02-24 02:09:00,
2013-02-23 21:14:00,39.6,31.6,28.97,North,356,0.0,0.0,73,0.00,,BKN,0.00,VWS V13.01,2013-02-24 02:14:00,
2013-02-23 21:19:00,39.4,31.5,28.97,North,356,0.0,0.0,73,0.00,,BKN,0.00,VWS V13.01,2013-02-24 02:19:00,
2013-02-23 21:24:00,39.4,31.5,28.97,North,356,0.0,0.0,73,0.00,,BKN,0.00,VWS V13.01,2013-02-24 02:24:00,
2013-02-23 21:29:00,39.4,31.5,28.97,North,356,0.0,0.0,73,0.00,,BKN,0.00,VWS V13.01,2013-02-24 02:29:00,
2013-02-23 21:34:00,39.2,31.3,28.97,North,356,0.0,0.0,73,0.00,,BKN,0.00,VWS V13.01,2013-02-24 02:34:00,
2013-02-23 21:39:00,39.0,31.1,28.97,North,356,0.0,0.0,73,0.00,,BKN,0.00,VWS V13.01,2013-02-24 02:39:00,
2013-02-23 21:44:00,39.0,31.1,28.97,North,356,0.0,0.0,73,0.00,,BKN,0.00,VWS V13.01,2013-02-24 02:44:00,
2013-02-23 21:49:00,38.8,30.9,28.97,North,356,0.0,0.0,73,0.00,,BKN,0.00,VWS V13.01,2013-02-24 02:49:00,
2013-02-23 21:54:00,38.8,30.9,28.97,North,356,0.0,0.0,73,0.00,,BKN,0.00,VWS V13.01,2013-02-24 02:54:00,
2013-02-23 21:59:00,38.8,30.9,28.97,North,356,0.0,0.0,73,0.00,,BKN,0.00,VWS V13.01,2013-02-24 02:59:00,
2013-02-23 22:04:00,38.7,30.8,28.97,North,356,0.0,0.0,73,0.00,,BKN,0.00,VWS V13.01,2013-02-24 03:04:00,
2013-02-23 22:09:00,38.7,30.8,28.97,North,356,0.0,0.0,73,0.00,,BKN,0.00,VWS V13.01,2013-02-24 03:09:00,
2013-02-23 22:14:00,38.7,31.1,28.97,North,356,0.0,0.0,74,0.00,,BKN,0.00,VWS V13.01,2013-02-24 03:14:00,
2013-02-23 22:19:00,38.5,30.9,28.97,North,356,0.0,0.0,74,0.00,,BKN,0.00,VWS V13.01,2013-02-24 03:19:00,
2013-02-23 22:24:00,38.5,30.9,28.97,North,356,0.0,0.0,74,0.00,,BKN,0.00,VWS V13.01,2013-02-24 03:24:00,
2013-02-23 22:29:00,38.3,30.8,28.97,North,356,0.0,0.0,74,0.00,,BKN,0.00,VWS V13.01,2013-02-24 03:29:00,
2013-02-23 22:34:00,38.3,30.8,28.97,North,356,3.1,3.6,74,0.00,,BKN,0.00,VWS V13.01,2013-02-24 03:34:00,
2013-02-23 22:39:00,38.3,30.8,28.97,North,356,0.0,3.6,74,0.00,,BKN,0.00,VWS V13.01,2013-02-24 03:39:00,
2013-02-23 22:44:00,38.1,30.9,28.97,North,356,2.7,3.6,75,0.00,,BKN,0.00,VWS V13.01,2013-02-24 03:44:00,
2013-02-23 22:49:00,38.1,30.9,28.97,North,356,2.7,3.1,75,0.00,,BKN,0.00,VWS V13.01,2013-02-24 03:49:00,
2013-02-23 22:54:00,38.1,30.9,28.97,North,356,4.0,4.0,75,0.00,,BKN,0.00,VWS V13.01,2013-02-24 03:54:00,
2013-02-23 22:59:00,38.1,30.9,28.97,North,356,4.0,4.9,75,0.00,,BKN,0.00,VWS V13.01,2013-02-24 03:59:00,
2013-02-23 23:04:00,38.1,31.2,28.97,NNE,22,4.0,4.0,76,0.00,,BKN,0.00,VWS V13.01,2013-02-24 04:04:00,
2013-02-23 23:09:00,38.1,31.6,28.97,North,356,4.5,5.4,77,0.00,,BKN,0.00,VWS V13.01,2013-02-24 04:09:00,
2013-02-23 23:14:00,38.1,31.9,28.97,NNE,29,3.1,4.0,78,0.00,,BKN,0.00,VWS V13.01,2013-02-24 04:14:00,
2013-02-23 23:19:00,38.3,32.4,28.97,NE,46,3.6,4.5,79,0.00,,BKN,0.00,VWS V13.01,2013-02-24 04:19:00,
2013-02-23 23:24:00,38.3,32.4,28.97,North,351,5.4,6.7,79,0.00,,BKN,0.00,VWS V13.01,2013-02-24 04:24:00,
2013-02-23 23:29:00,38.5,33.2,28.97,NNE,30,6.3,7.4,81,0.00,,BKN,0.00,VWS V13.01,2013-02-24 04:29:00,
2013-02-23 23:34:00,38.5,33.5,28.97,NNE,13,4.9,4.9,82,0.00,,BKN,0.00,VWS V13.01,2013-02-24 04:34:00,
2013-02-23 23:39:00,38.5,33.5,28.97,North,8,4.0,4.0,82,0.00,,BKN,0.00,VWS V13.01,2013-02-24 04:39:00,
2013-02-23 23:44:00,38.5,33.5,28.97,North,351,4.0,4.0,82,0.00,,BKN,0.00,VWS V13.01,2013-02-24 04:44:00,
2013-02-23 23:49:00,38.5,33.5,28.97,NNW,347,3.6,4.9,82,0.00,,BKN,0.00,VWS V13.01,2013-02-24 04:49:00,
2013-02-23 23:54:00,38.5,33.5,28.97,North,0,3.6,4.0,82,0.00,,BKN,0.00,VWS V13.01,2013-02-24 04:54:00,
2013-02-23 23:59:00,38.5,33.5,28.97,NE,41,3.6,4.0,82,0.00,,BKN,0.00,VWS V13.01,2013-02-24 04:59:00,